sensor_id;sensor_type;location;lat;lon;timestamp;pressure;altitude;pressure_sealevel;temperature
40199;BMP280;25906;43.536;26.068;2023-07-16T00:00:14;99089.63;;;24.25
40199;BMP280;25906;43.536;26.068;2023-07-16T00:03:00;99073.19;;;24.23
40199;BMP280;25906;43.536;26.068;2023-07-16T00:05:45;99078.59;;;24.23
40199;BMP280;25906;43.536;26.068;2023-07-16T00:08:34;99074.63;;;24.24
40199;BMP280;25906;43.536;26.068;2023-07-16T00:11:19;99074.34;;;24.27
40199;BMP280;25906;43.536;26.068;2023-07-16T00:14:05;99071.44;;;24.25
40199;BMP280;25906;43.536;26.068;2023-07-16T00:16:50;99075.38;;;24.24
40199;BMP280;25906;43.536;26.068;2023-07-16T00:19:35;99068.47;;;24.05
40199;BMP280;25906;43.536;26.068;2023-07-16T00:22:21;99070.03;;;24.19
40199;BMP280;25906;43.536;26.068;2023-07-16T00:25:06;99068.34;;;24.16
40199;BMP280;25906;43.536;26.068;2023-07-16T00:27:52;99062.47;;;24.12
40199;BMP280;25906;43.536;26.068;2023-07-16T00:30:37;99060.56;;;24.07
40199;BMP280;25906;43.536;26.068;2023-07-16T00:33:22;99059.59;;;24.10
40199;BMP280;25906;43.536;26.068;2023-07-16T00:36:07;99050.78;;;24.22
40199;BMP280;25906;43.536;26.068;2023-07-16T00:38:53;99053.84;;;24.13
40199;BMP280;25906;43.536;26.068;2023-07-16T00:41:38;99048.91;;;24.17
40199;BMP280;25906;43.536;26.068;2023-07-16T00:44:23;99046.88;;;24.23
40199;BMP280;25906;43.536;26.068;2023-07-16T00:47:09;99051.59;;;23.99
40199;BMP280;25906;43.536;26.068;2023-07-16T00:49:54;99055.16;;;24.07
40199;BMP280;25906;43.536;26.068;2023-07-16T00:52:40;99051.50;;;24.04
40199;BMP280;25906;43.536;26.068;2023-07-16T00:55:25;99045.34;;;24.04
40199;BMP280;25906;43.536;26.068;2023-07-16T00:58:11;99048.06;;;24.04
40199;BMP280;25906;43.536;26.068;2023-07-16T01:00:56;99034.03;;;24.05
40199;BMP280;25906;43.536;26.068;2023-07-16T01:03:41;99033.53;;;24.07
40199;BMP280;25906;43.536;26.068;2023-07-16T01:09:18;99036.53;;;24.03
40199;BMP280;25906;43.536;26.068;2023-07-16T01:12:04;99036.97;;;24.07
40199;BMP280;25906;43.536;26.068;2023-07-16T01:14:50;99037.06;;;24.02
40199;BMP280;25906;43.536;26.068;2023-07-16T01:17:36;99028.09;;;23.88
40199;BMP280;25906;43.536;26.068;2023-07-16T01:20:21;99032.06;;;23.87
40199;BMP280;25906;43.536;26.068;2023-07-16T01:31:37;99034.31;;;23.83
40199;BMP280;25906;43.536;26.068;2023-07-16T01:34:24;99032.47;;;23.72
40199;BMP280;25906;43.536;26.068;2023-07-16T01:37:10;99033.88;;;23.79
40199;BMP280;25906;43.536;26.068;2023-07-16T01:39:55;99038.66;;;23.67
40199;BMP280;25906;43.536;26.068;2023-07-16T01:42:40;99030.31;;;23.65
40199;BMP280;25906;43.536;26.068;2023-07-16T01:45:25;99036.97;;;23.64
40199;BMP280;25906;43.536;26.068;2023-07-16T01:51:08;99039.97;;;23.61
40199;BMP280;25906;43.536;26.068;2023-07-16T01:53:53;99043.84;;;23.65
40199;BMP280;25906;43.536;26.068;2023-07-16T01:56:38;99041.63;;;23.64
40199;BMP280;25906;43.536;26.068;2023-07-16T01:59:24;99042.81;;;23.68
40199;BMP280;25906;43.536;26.068;2023-07-16T02:02:09;99039.50;;;23.57
40199;BMP280;25906;43.536;26.068;2023-07-16T02:04:54;99035.63;;;23.52
40199;BMP280;25906;43.536;26.068;2023-07-16T02:07:40;99036.78;;;23.57
40199;BMP280;25906;43.536;26.068;2023-07-16T02:10:25;99042.00;;;23.55
40199;BMP280;25906;43.536;26.068;2023-07-16T02:13:11;99037.78;;;23.59
40199;BMP280;25906;43.536;26.068;2023-07-16T02:15:56;99037.66;;;23.46
40199;BMP280;25906;43.536;26.068;2023-07-16T02:18:41;99037.88;;;23.48
40199;BMP280;25906;43.536;26.068;2023-07-16T02:21:26;99035.38;;;23.50
40199;BMP280;25906;43.536;26.068;2023-07-16T02:24:12;99036.19;;;23.45
40199;BMP280;25906;43.536;26.068;2023-07-16T02:26:57;99040.03;;;23.55
40199;BMP280;25906;43.536;26.068;2023-07-16T02:29:42;99038.25;;;23.58
40199;BMP280;25906;43.536;26.068;2023-07-16T02:32:28;99038.44;;;23.65
40199;BMP280;25906;43.536;26.068;2023-07-16T02:35:13;99034.34;;;23.59
40199;BMP280;25906;43.536;26.068;2023-07-16T02:37:58;99040.47;;;23.59
40199;BMP280;25906;43.536;26.068;2023-07-16T02:40:47;99039.13;;;23.47
40199;BMP280;25906;43.536;26.068;2023-07-16T02:43:32;99041.69;;;23.58
40199;BMP280;25906;43.536;26.068;2023-07-16T02:46:17;99039.97;;;23.61
40199;BMP280;25906;43.536;26.068;2023-07-16T02:49:03;99042.19;;;23.57
40199;BMP280;25906;43.536;26.068;2023-07-16T02:51:49;99036.28;;;23.58
40199;BMP280;25906;43.536;26.068;2023-07-16T02:54:37;99040.78;;;23.56
40199;BMP280;25906;43.536;26.068;2023-07-16T02:57:22;99037.53;;;23.57
40199;BMP280;25906;43.536;26.068;2023-07-16T03:00:07;99038.00;;;23.61
40199;BMP280;25906;43.536;26.068;2023-07-16T03:02:53;99041.44;;;23.62
40199;BMP280;25906;43.536;26.068;2023-07-16T03:05:38;99042.91;;;23.63
40199;BMP280;25906;43.536;26.068;2023-07-16T03:08:23;99048.06;;;23.61
40199;BMP280;25906;43.536;26.068;2023-07-16T03:11:11;99045.31;;;23.66
40199;BMP280;25906;43.536;26.068;2023-07-16T03:13:57;99033.75;;;23.66
40199;BMP280;25906;43.536;26.068;2023-07-16T03:16:42;99034.41;;;23.72
40199;BMP280;25906;43.536;26.068;2023-07-16T03:19:27;99042.03;;;23.73
40199;BMP280;25906;43.536;26.068;2023-07-16T03:22:13;99044.69;;;23.79
40199;BMP280;25906;43.536;26.068;2023-07-16T03:25:01;99038.81;;;23.75
40199;BMP280;25906;43.536;26.068;2023-07-16T03:27:47;99049.97;;;23.90
40199;BMP280;25906;43.536;26.068;2023-07-16T03:30:32;99050.94;;;24.11
40199;BMP280;25906;43.536;26.068;2023-07-16T03:33:18;99047.56;;;24.24
40199;BMP280;25906;43.536;26.068;2023-07-16T03:36:03;99049.97;;;24.46
40199;BMP280;25906;43.536;26.068;2023-07-16T03:38:49;99046.25;;;24.49
40199;BMP280;25906;43.536;26.068;2023-07-16T03:41:34;99049.69;;;24.50
40199;BMP280;25906;43.536;26.068;2023-07-16T03:44:19;99048.50;;;24.64
40199;BMP280;25906;43.536;26.068;2023-07-16T03:47:04;99051.94;;;24.83
40199;BMP280;25906;43.536;26.068;2023-07-16T03:49:50;99054.16;;;24.97
40199;BMP280;25906;43.536;26.068;2023-07-16T03:52:35;99057.53;;;25.17
40199;BMP280;25906;43.536;26.068;2023-07-16T03:55:20;99064.00;;;25.27
40199;BMP280;25906;43.536;26.068;2023-07-16T03:58:06;99063.16;;;25.19
40199;BMP280;25906;43.536;26.068;2023-07-16T04:00:51;99058.25;;;25.17
40199;BMP280;25906;43.536;26.068;2023-07-16T04:03:37;99058.69;;;25.47
40199;BMP280;25906;43.536;26.068;2023-07-16T04:06:22;99061.72;;;25.57
40199;BMP280;25906;43.536;26.068;2023-07-16T04:09:07;99068.22;;;25.67
40199;BMP280;25906;43.536;26.068;2023-07-16T04:11:53;99068.53;;;25.76
40199;BMP280;25906;43.536;26.068;2023-07-16T04:14:38;99064.41;;;25.96
40199;BMP280;25906;43.536;26.068;2023-07-16T04:17:23;99066.81;;;25.87
40199;BMP280;25906;43.536;26.068;2023-07-16T04:20:09;99077.50;;;26.18
40199;BMP280;25906;43.536;26.068;2023-07-16T04:22:54;99082.78;;;26.37
40199;BMP280;25906;43.536;26.068;2023-07-16T04:25:39;99079.03;;;26.27
40199;BMP280;25906;43.536;26.068;2023-07-16T04:28:25;99073.16;;;26.70
40199;BMP280;25906;43.536;26.068;2023-07-16T04:31:10;99072.31;;;26.75
40199;BMP280;25906;43.536;26.068;2023-07-16T04:33:55;99077.47;;;26.86
40199;BMP280;25906;43.536;26.068;2023-07-16T04:36:41;99079.13;;;26.89
40199;BMP280;25906;43.536;26.068;2023-07-16T04:39:27;99080.66;;;26.77
40199;BMP280;25906;43.536;26.068;2023-07-16T04:42:12;99089.91;;;27.02
40199;BMP280;25906;43.536;26.068;2023-07-16T04:44:57;99088.59;;;26.95
40199;BMP280;25906;43.536;26.068;2023-07-16T04:47:43;99085.06;;;27.08
40199;BMP280;25906;43.536;26.068;2023-07-16T04:50:28;99079.63;;;27.29
40199;BMP280;25906;43.536;26.068;2023-07-16T04:53:13;99078.75;;;27.34
40199;BMP280;25906;43.536;26.068;2023-07-16T04:55:58;99084.91;;;27.34
40199;BMP280;25906;43.536;26.068;2023-07-16T04:58:44;99087.81;;;27.36
40199;BMP280;25906;43.536;26.068;2023-07-16T05:01:29;99091.41;;;27.59
40199;BMP280;25906;43.536;26.068;2023-07-16T05:04:15;99085.06;;;27.64
40199;BMP280;25906;43.536;26.068;2023-07-16T05:07:03;99090.69;;;27.38
40199;BMP280;25906;43.536;26.068;2023-07-16T05:09:48;99092.75;;;27.45
40199;BMP280;25906;43.536;26.068;2023-07-16T05:12:34;99092.09;;;27.52
40199;BMP280;25906;43.536;26.068;2023-07-16T05:15:19;99094.81;;;27.52
40199;BMP280;25906;43.536;26.068;2023-07-16T05:18:05;99097.78;;;27.69
40199;BMP280;25906;43.536;26.068;2023-07-16T05:20:50;99090.94;;;27.76
40199;BMP280;25906;43.536;26.068;2023-07-16T05:23:35;99097.56;;;28.03
40199;BMP280;25906;43.536;26.068;2023-07-16T05:26:20;99101.72;;;28.47
40199;BMP280;25906;43.536;26.068;2023-07-16T05:29:06;99098.81;;;28.53
40199;BMP280;25906;43.536;26.068;2023-07-16T05:31:51;99097.13;;;28.35
40199;BMP280;25906;43.536;26.068;2023-07-16T05:34:36;99109.72;;;28.68
40199;BMP280;25906;43.536;26.068;2023-07-16T05:37:22;99107.00;;;28.83
40199;BMP280;25906;43.536;26.068;2023-07-16T05:40:07;99107.38;;;28.95
40199;BMP280;25906;43.536;26.068;2023-07-16T05:42:53;99104.75;;;29.19
40199;BMP280;25906;43.536;26.068;2023-07-16T05:45:39;99112.97;;;28.82
40199;BMP280;25906;43.536;26.068;2023-07-16T05:48:24;99112.97;;;29.04
40199;BMP280;25906;43.536;26.068;2023-07-16T05:51:09;99100.72;;;29.43
40199;BMP280;25906;43.536;26.068;2023-07-16T05:53:55;99111.84;;;29.45
40199;BMP280;25906;43.536;26.068;2023-07-16T05:56:40;99106.91;;;29.43
40199;BMP280;25906;43.536;26.068;2023-07-16T05:59:25;99108.25;;;29.75
40199;BMP280;25906;43.536;26.068;2023-07-16T06:02:10;99108.63;;;29.79
40199;BMP280;25906;43.536;26.068;2023-07-16T06:04:56;99108.97;;;29.90
40199;BMP280;25906;43.536;26.068;2023-07-16T06:07:41;99115.00;;;29.81
40199;BMP280;25906;43.536;26.068;2023-07-16T06:10:26;99112.66;;;30.10
40199;BMP280;25906;43.536;26.068;2023-07-16T06:13:11;99111.84;;;30.24
40199;BMP280;25906;43.536;26.068;2023-07-16T06:15:57;99110.38;;;30.23
40199;BMP280;25906;43.536;26.068;2023-07-16T06:18:42;99113.19;;;30.41
40199;BMP280;25906;43.536;26.068;2023-07-16T06:21:27;99108.34;;;30.56
40199;BMP280;25906;43.536;26.068;2023-07-16T06:24:13;99111.53;;;30.70
40199;BMP280;25906;43.536;26.068;2023-07-16T06:26:58;99109.28;;;30.76
40199;BMP280;25906;43.536;26.068;2023-07-16T06:29:44;99113.81;;;30.98
40199;BMP280;25906;43.536;26.068;2023-07-16T06:32:29;99110.13;;;31.03
40199;BMP280;25906;43.536;26.068;2023-07-16T06:35:14;99109.34;;;31.27
40199;BMP280;25906;43.536;26.068;2023-07-16T06:38:00;99113.91;;;31.42
40199;BMP280;25906;43.536;26.068;2023-07-16T06:40:45;99111.78;;;31.23
40199;BMP280;25906;43.536;26.068;2023-07-16T06:43:31;99118.13;;;31.43
40199;BMP280;25906;43.536;26.068;2023-07-16T06:46:16;99107.91;;;31.43
40199;BMP280;25906;43.536;26.068;2023-07-16T06:49:01;99113.91;;;31.76
40199;BMP280;25906;43.536;26.068;2023-07-16T06:51:47;99106.19;;;31.91
40199;BMP280;25906;43.536;26.068;2023-07-16T06:54:32;99113.22;;;31.85
40199;BMP280;25906;43.536;26.068;2023-07-16T06:57:17;99112.72;;;32.05
40199;BMP280;25906;43.536;26.068;2023-07-16T07:00:02;99113.25;;;32.21
40199;BMP280;25906;43.536;26.068;2023-07-16T07:02:49;99111.28;;;32.31
40199;BMP280;25906;43.536;26.068;2023-07-16T07:05:34;99113.91;;;32.39
40199;BMP280;25906;43.536;26.068;2023-07-16T07:08:21;99113.09;;;32.55
40199;BMP280;25906;43.536;26.068;2023-07-16T07:11:07;99120.19;;;32.77
40199;BMP280;25906;43.536;26.068;2023-07-16T07:13:52;99114.78;;;33.06
40199;BMP280;25906;43.536;26.068;2023-07-16T07:16:37;99120.16;;;32.58
40199;BMP280;25906;43.536;26.068;2023-07-16T07:19:24;99117.22;;;33.21
40199;BMP280;25906;43.536;26.068;2023-07-16T07:22:10;99114.47;;;33.31
40199;BMP280;25906;43.536;26.068;2023-07-16T07:24:55;99120.94;;;33.26
40199;BMP280;25906;43.536;26.068;2023-07-16T07:27:41;99116.06;;;33.24
40199;BMP280;25906;43.536;26.068;2023-07-16T07:30:26;99119.09;;;33.00
40199;BMP280;25906;43.536;26.068;2023-07-16T07:33:12;99112.75;;;33.07
40199;BMP280;25906;43.536;26.068;2023-07-16T07:35:57;99119.34;;;33.61
40199;BMP280;25906;43.536;26.068;2023-07-16T07:38:42;99116.28;;;33.76
40199;BMP280;25906;43.536;26.068;2023-07-16T07:41:28;99112.56;;;33.62
40199;BMP280;25906;43.536;26.068;2023-07-16T07:44:13;99107.81;;;33.53
40199;BMP280;25906;43.536;26.068;2023-07-16T07:46:58;99110.50;;;33.72
40199;BMP280;25906;43.536;26.068;2023-07-16T07:49:43;99106.53;;;33.94
40199;BMP280;25906;43.536;26.068;2023-07-16T07:52:29;99113.97;;;33.72
40199;BMP280;25906;43.536;26.068;2023-07-16T07:55:14;99110.09;;;34.06
40199;BMP280;25906;43.536;26.068;2023-07-16T07:57:59;99108.47;;;34.43
40199;BMP280;25906;43.536;26.068;2023-07-16T08:00:45;99117.91;;;34.61
40199;BMP280;25906;43.536;26.068;2023-07-16T08:03:30;99108.97;;;34.94
40199;BMP280;25906;43.536;26.068;2023-07-16T08:06:15;99105.06;;;34.97
40199;BMP280;25906;43.536;26.068;2023-07-16T08:09:00;99113.41;;;34.99
40199;BMP280;25906;43.536;26.068;2023-07-16T08:11:46;99104.16;;;34.82
40199;BMP280;25906;43.536;26.068;2023-07-16T08:14:31;99113.19;;;34.73
40199;BMP280;25906;43.536;26.068;2023-07-16T08:17:17;99110.59;;;35.08
40199;BMP280;25906;43.536;26.068;2023-07-16T08:20:02;99109.78;;;34.63
40199;BMP280;25906;43.536;26.068;2023-07-16T08:22:48;99110.03;;;34.89
40199;BMP280;25906;43.536;26.068;2023-07-16T08:25:33;99098.69;;;35.27
40199;BMP280;25906;43.536;26.068;2023-07-16T08:28:18;99105.19;;;35.31
40199;BMP280;25906;43.536;26.068;2023-07-16T08:31:04;99103.50;;;35.38
40199;BMP280;25906;43.536;26.068;2023-07-16T08:33:49;99103.72;;;35.30
40199;BMP280;25906;43.536;26.068;2023-07-16T08:36:35;99099.63;;;35.20
40199;BMP280;25906;43.536;26.068;2023-07-16T08:39:21;99103.41;;;35.36
40199;BMP280;25906;43.536;26.068;2023-07-16T08:42:09;99104.78;;;35.25
40199;BMP280;25906;43.536;26.068;2023-07-16T08:44:55;99096.53;;;35.25
40199;BMP280;25906;43.536;26.068;2023-07-16T08:47:41;99097.69;;;35.55
40199;BMP280;25906;43.536;26.068;2023-07-16T08:50:26;99100.97;;;35.74
40199;BMP280;25906;43.536;26.068;2023-07-16T08:53:11;99102.34;;;35.64
40199;BMP280;25906;43.536;26.068;2023-07-16T08:55:57;99099.72;;;35.43
40199;BMP280;25906;43.536;26.068;2023-07-16T08:58:42;99102.72;;;35.70
40199;BMP280;25906;43.536;26.068;2023-07-16T09:01:28;99106.06;;;35.57
40199;BMP280;25906;43.536;26.068;2023-07-16T09:04:13;99100.44;;;35.55
40199;BMP280;25906;43.536;26.068;2023-07-16T09:06:59;99097.13;;;35.91
40199;BMP280;25906;43.536;26.068;2023-07-16T09:09:54;99098.19;;;35.98
40199;BMP280;25906;43.536;26.068;2023-07-16T09:12:42;99099.25;;;36.04
40199;BMP280;25906;43.536;26.068;2023-07-16T09:15:28;99095.69;;;35.67
40199;BMP280;25906;43.536;26.068;2023-07-16T09:18:19;99094.19;;;35.43
40199;BMP280;25906;43.536;26.068;2023-07-16T09:21:04;99092.53;;;35.72
40199;BMP280;25906;43.536;26.068;2023-07-16T09:23:51;99103.31;;;36.03
40199;BMP280;25906;43.536;26.068;2023-07-16T09:26:36;99103.09;;;35.99
40199;BMP280;25906;43.536;26.068;2023-07-16T09:29:22;99104.53;;;36.23
40199;BMP280;25906;43.536;26.068;2023-07-16T09:32:10;99102.13;;;35.95
40199;BMP280;25906;43.536;26.068;2023-07-16T09:34:55;99092.69;;;35.86
40199;BMP280;25906;43.536;26.068;2023-07-16T09:37:41;99099.25;;;36.16
40199;BMP280;25906;43.536;26.068;2023-07-16T09:40:26;99097.59;;;35.99
40199;BMP280;25906;43.536;26.068;2023-07-16T09:43:12;99096.41;;;36.50
40199;BMP280;25906;43.536;26.068;2023-07-16T09:45:57;99092.88;;;36.73
40199;BMP280;25906;43.536;26.068;2023-07-16T09:48:43;99096.00;;;36.67
40199;BMP280;25906;43.536;26.068;2023-07-16T09:51:28;99083.06;;;36.10
40199;BMP280;25906;43.536;26.068;2023-07-16T09:54:15;99068.66;;;36.71
40199;BMP280;25906;43.536;26.068;2023-07-16T09:57:00;99074.69;;;36.56
40199;BMP280;25906;43.536;26.068;2023-07-16T09:59:47;99074.06;;;36.69
40199;BMP280;25906;43.536;26.068;2023-07-16T10:02:33;99065.50;;;36.40
40199;BMP280;25906;43.536;26.068;2023-07-16T10:05:23;99065.78;;;36.69
40199;BMP280;25906;43.536;26.068;2023-07-16T10:08:16;99062.53;;;36.98
40199;BMP280;25906;43.536;26.068;2023-07-16T10:11:02;99067.56;;;36.65
40199;BMP280;25906;43.536;26.068;2023-07-16T10:13:50;99064.44;;;36.96
40199;BMP280;25906;43.536;26.068;2023-07-16T10:16:36;99061.06;;;36.97
40199;BMP280;25906;43.536;26.068;2023-07-16T10:19:23;99065.25;;;36.48
40199;BMP280;25906;43.536;26.068;2023-07-16T10:22:08;99057.44;;;36.81
40199;BMP280;25906;43.536;26.068;2023-07-16T10:24:54;99063.88;;;36.60
40199;BMP280;25906;43.536;26.068;2023-07-16T10:27:39;99057.66;;;37.24
40199;BMP280;25906;43.536;26.068;2023-07-16T10:30:24;99055.81;;;37.15
40199;BMP280;25906;43.536;26.068;2023-07-16T10:33:12;99059.28;;;37.15
40199;BMP280;25906;43.536;26.068;2023-07-16T10:35:58;99055.44;;;37.34
40199;BMP280;25906;43.536;26.068;2023-07-16T10:38:45;99043.03;;;37.08
40199;BMP280;25906;43.536;26.068;2023-07-16T10:41:31;99046.22;;;36.90
40199;BMP280;25906;43.536;26.068;2023-07-16T10:44:19;99043.03;;;37.08
40199;BMP280;25906;43.536;26.068;2023-07-16T10:47:05;99039.72;;;36.98
40199;BMP280;25906;43.536;26.068;2023-07-16T10:49:51;99036.81;;;36.82
40199;BMP280;25906;43.536;26.068;2023-07-16T10:52:39;99048.25;;;36.90
40199;BMP280;25906;43.536;26.068;2023-07-16T10:55:26;99044.72;;;37.01
40199;BMP280;25906;43.536;26.068;2023-07-16T10:58:11;99034.19;;;36.72
40199;BMP280;25906;43.536;26.068;2023-07-16T11:00:56;99039.22;;;36.03
40199;BMP280;25906;43.536;26.068;2023-07-16T11:03:42;99041.53;;;35.83
40199;BMP280;25906;43.536;26.068;2023-07-16T11:06:27;99030.13;;;35.54
40199;BMP280;25906;43.536;26.068;2023-07-16T11:09:12;99029.78;;;35.36
40199;BMP280;25906;43.536;26.068;2023-07-16T11:12:20;99038.16;;;35.61
40199;BMP280;25906;43.536;26.068;2023-07-16T11:15:04;99038.84;;;35.27
40199;BMP280;25906;43.536;26.068;2023-07-16T11:17:49;99028.09;;;35.31
40199;BMP280;25906;43.536;26.068;2023-07-16T11:20:36;99030.16;;;34.98
40199;BMP280;25906;43.536;26.068;2023-07-16T11:23:21;99033.13;;;35.58
40199;BMP280;25906;43.536;26.068;2023-07-16T11:26:11;99024.16;;;35.57
40199;BMP280;25906;43.536;26.068;2023-07-16T11:28:57;99021.06;;;34.96
40199;BMP280;25906;43.536;26.068;2023-07-16T11:31:42;99023.91;;;34.53
40199;BMP280;25906;43.536;26.068;2023-07-16T11:34:27;99024.66;;;34.44
40199;BMP280;25906;43.536;26.068;2023-07-16T11:37:12;99023.09;;;34.62
40199;BMP280;25906;43.536;26.068;2023-07-16T11:39:58;99022.00;;;34.89
40199;BMP280;25906;43.536;26.068;2023-07-16T11:42:45;99018.91;;;35.06
40199;BMP280;25906;43.536;26.068;2023-07-16T11:45:30;99013.16;;;34.90
40199;BMP280;25906;43.536;26.068;2023-07-16T11:48:16;99017.31;;;34.91
40199;BMP280;25906;43.536;26.068;2023-07-16T11:51:01;99021.66;;;34.61
40199;BMP280;25906;43.536;26.068;2023-07-16T11:53:46;99023.13;;;34.74
40199;BMP280;25906;43.536;26.068;2023-07-16T11:56:31;99017.28;;;34.47
40199;BMP280;25906;43.536;26.068;2023-07-16T11:59:17;99015.50;;;34.09
40199;BMP280;25906;43.536;26.068;2023-07-16T12:02:05;99015.91;;;34.15
40199;BMP280;25906;43.536;26.068;2023-07-16T12:04:51;99015.09;;;34.03
40199;BMP280;25906;43.536;26.068;2023-07-16T12:07:37;99023.56;;;34.17
40199;BMP280;25906;43.536;26.068;2023-07-16T12:10:22;99018.13;;;34.07
40199;BMP280;25906;43.536;26.068;2023-07-16T12:13:08;99020.41;;;34.11
40199;BMP280;25906;43.536;26.068;2023-07-16T12:15:53;99012.44;;;33.94
40199;BMP280;25906;43.536;26.068;2023-07-16T12:18:38;99024.75;;;33.83
40199;BMP280;25906;43.536;26.068;2023-07-16T12:21:23;99016.38;;;33.81
40199;BMP280;25906;43.536;26.068;2023-07-16T12:24:09;99028.41;;;34.28
40199;BMP280;25906;43.536;26.068;2023-07-16T12:26:54;99013.06;;;34.67
40199;BMP280;25906;43.536;26.068;2023-07-16T12:29:40;98997.34;;;34.91
40199;BMP280;25906;43.536;26.068;2023-07-16T12:32:25;99019.88;;;34.99
40199;BMP280;25906;43.536;26.068;2023-07-16T12:35:10;99012.28;;;35.20
40199;BMP280;25906;43.536;26.068;2023-07-16T12:37:55;99008.94;;;35.91
40199;BMP280;25906;43.536;26.068;2023-07-16T12:40:43;99010.25;;;35.90
40199;BMP280;25906;43.536;26.068;2023-07-16T12:43:28;98998.38;;;35.88
40199;BMP280;25906;43.536;26.068;2023-07-16T12:46:13;99007.56;;;36.04
40199;BMP280;25906;43.536;26.068;2023-07-16T12:48:59;99005.53;;;36.04
40199;BMP280;25906;43.536;26.068;2023-07-16T12:51:44;99003.59;;;36.18
40199;BMP280;25906;43.536;26.068;2023-07-16T12:54:29;98996.19;;;36.09
40199;BMP280;25906;43.536;26.068;2023-07-16T12:57:15;98995.78;;;36.26
40199;BMP280;25906;43.536;26.068;2023-07-16T13:00:00;98994.88;;;36.47
40199;BMP280;25906;43.536;26.068;2023-07-16T13:02:50;98999.22;;;36.38
40199;BMP280;25906;43.536;26.068;2023-07-16T13:05:35;98994.69;;;36.56
40199;BMP280;25906;43.536;26.068;2023-07-16T13:08:20;98998.22;;;36.45
40199;BMP280;25906;43.536;26.068;2023-07-16T13:11:06;98984.28;;;36.55
40199;BMP280;25906;43.536;26.068;2023-07-16T13:13:51;98985.38;;;36.75
40199;BMP280;25906;43.536;26.068;2023-07-16T13:16:37;98982.47;;;36.98
40199;BMP280;25906;43.536;26.068;2023-07-16T13:19:22;98984.94;;;36.67
40199;BMP280;25906;43.536;26.068;2023-07-16T13:22:07;98979.94;;;36.63
40199;BMP280;25906;43.536;26.068;2023-07-16T13:24:53;98983.78;;;36.58
40199;BMP280;25906;43.536;26.068;2023-07-16T13:27:38;98982.41;;;36.71
40199;BMP280;25906;43.536;26.068;2023-07-16T13:30:23;98984.00;;;36.62
40199;BMP280;25906;43.536;26.068;2023-07-16T13:33:08;98988.53;;;36.69
40199;BMP280;25906;43.536;26.068;2023-07-16T13:35:54;98977.78;;;36.75
40199;BMP280;25906;43.536;26.068;2023-07-16T13:38:39;98981.06;;;36.72
40199;BMP280;25906;43.536;26.068;2023-07-16T13:41:24;98979.28;;;36.65
40199;BMP280;25906;43.536;26.068;2023-07-16T13:44:09;98981.50;;;36.80
40199;BMP280;25906;43.536;26.068;2023-07-16T13:46:55;98974.63;;;36.67
40199;BMP280;25906;43.536;26.068;2023-07-16T13:49:40;98969.81;;;36.68
40199;BMP280;25906;43.536;26.068;2023-07-16T13:52:25;98977.25;;;36.65
40199;BMP280;25906;43.536;26.068;2023-07-16T13:55:11;98961.56;;;36.81
40199;BMP280;25906;43.536;26.068;2023-07-16T13:57:56;98964.69;;;36.62
40199;BMP280;25906;43.536;26.068;2023-07-16T14:00:41;98965.16;;;36.34
40199;BMP280;25906;43.536;26.068;2023-07-16T14:03:27;98970.09;;;36.35
40199;BMP280;25906;43.536;26.068;2023-07-16T14:06:12;98963.59;;;36.06
40199;BMP280;25906;43.536;26.068;2023-07-16T14:08:57;98963.25;;;36.36
40199;BMP280;25906;43.536;26.068;2023-07-16T14:11:43;98962.03;;;36.14
40199;BMP280;25906;43.536;26.068;2023-07-16T14:14:29;98953.50;;;36.10
40199;BMP280;25906;43.536;26.068;2023-07-16T14:17:14;98959.94;;;36.26
40199;BMP280;25906;43.536;26.068;2023-07-16T14:19:59;98951.09;;;35.91
40199;BMP280;25906;43.536;26.068;2023-07-16T14:22:45;98950.59;;;36.20
40199;BMP280;25906;43.536;26.068;2023-07-16T14:25:30;98956.03;;;36.43
40199;BMP280;25906;43.536;26.068;2023-07-16T14:28:15;98950.09;;;36.48
40199;BMP280;25906;43.536;26.068;2023-07-16T14:31:00;98946.75;;;36.25
40199;BMP280;25906;43.536;26.068;2023-07-16T14:33:46;98943.94;;;36.11
40199;BMP280;25906;43.536;26.068;2023-07-16T14:36:31;98941.06;;;36.09
40199;BMP280;25906;43.536;26.068;2023-07-16T14:39:16;98943.47;;;36.03
40199;BMP280;25906;43.536;26.068;2023-07-16T14:42:01;98942.09;;;35.79
40199;BMP280;25906;43.536;26.068;2023-07-16T14:44:48;98941.47;;;35.92
40199;BMP280;25906;43.536;26.068;2023-07-16T14:47:33;98938.03;;;35.80
40199;BMP280;25906;43.536;26.068;2023-07-16T14:50:19;98934.63;;;35.93
40199;BMP280;25906;43.536;26.068;2023-07-16T14:53:04;98939.88;;;36.01
40199;BMP280;25906;43.536;26.068;2023-07-16T14:55:50;98937.84;;;36.01
40199;BMP280;25906;43.536;26.068;2023-07-16T14:58:35;98939.88;;;36.12
40199;BMP280;25906;43.536;26.068;2023-07-16T15:01:21;98937.75;;;35.99
40199;BMP280;25906;43.536;26.068;2023-07-16T15:04:06;98932.69;;;36.07
40199;BMP280;25906;43.536;26.068;2023-07-16T15:06:52;98941.13;;;35.86
40199;BMP280;25906;43.536;26.068;2023-07-16T15:09:37;98930.94;;;36.00
40199;BMP280;25906;43.536;26.068;2023-07-16T15:12:22;98928.69;;;36.10
40199;BMP280;25906;43.536;26.068;2023-07-16T15:15:08;98931.66;;;35.77
40199;BMP280;25906;43.536;26.068;2023-07-16T15:17:55;98927.84;;;35.71
40199;BMP280;25906;43.536;26.068;2023-07-16T15:20:41;98929.44;;;35.74
40199;BMP280;25906;43.536;26.068;2023-07-16T15:23:26;98932.06;;;35.37
40199;BMP280;25906;43.536;26.068;2023-07-16T15:26:12;98925.38;;;35.40
40199;BMP280;25906;43.536;26.068;2023-07-16T15:28:57;98920.47;;;35.39
40199;BMP280;25906;43.536;26.068;2023-07-16T15:31:43;98923.72;;;35.24
40199;BMP280;25906;43.536;26.068;2023-07-16T15:34:28;98932.81;;;35.38
40199;BMP280;25906;43.536;26.068;2023-07-16T15:37:13;98934.22;;;35.73
40199;BMP280;25906;43.536;26.068;2023-07-16T15:39:59;98931.50;;;35.50
40199;BMP280;25906;43.536;26.068;2023-07-16T15:42:44;98925.75;;;35.35
40199;BMP280;25906;43.536;26.068;2023-07-16T15:45:29;98928.00;;;35.15
40199;BMP280;25906;43.536;26.068;2023-07-16T15:48:15;98933.84;;;34.98
40199;BMP280;25906;43.536;26.068;2023-07-16T15:51:00;98935.53;;;34.92
40199;BMP280;25906;43.536;26.068;2023-07-16T15:53:45;98933.50;;;34.92